sensor_id;sensor_type;location;lat;lon;timestamp;P1;P2;P0
53658;PMS5003;41524;35.624;139.698;2023-04-02T00:00:15;38.00;32.00;
53658;PMS5003;41524;35.624;139.698;2023-04-02T00:05:43;30.00;27.00;
53658;PMS5003;41524;35.624;139.698;2023-04-02T00:10:24;35.00;32.00;
53658;PMS5003;41524;35.624;139.698;2023-04-02T00:15:11;24.00;22.00;
53658;PMS5003;41524;35.624;139.698;2023-04-02T00:20:13;29.00;28.00;
53658;PMS5003;41524;35.624;139.698;2023-04-02T00:25:15;33.00;31.00;
53658;PMS5003;41524;35.624;139.698;2023-04-02T00:30:14;24.00;21.00;
53658;PMS5003;41524;35.624;139.698;2023-04-02T00:35:10;28.00;28.00;
53658;PMS5003;41524;35.624;139.698;2023-04-02T00:40:19;23.00;23.00;
53658;PMS5003;41524;35.624;139.698;2023-04-02T00:45:13;24.00;23.00;
53658;PMS5003;41524;35.624;139.698;2023-04-02T00:50:16;30.00;27.00;
53658;PMS5003;41524;35.624;139.698;2023-04-02T00:55:11;28.00;26.00;
53658;PMS5003;41524;35.624;139.698;2023-04-02T01:00:17;23.00;23.00;
53658;PMS5003;41524;35.624;139.698;2023-04-02T01:05:19;28.00;28.00;
53658;PMS5003;41524;35.624;139.698;2023-04-02T01:10:13;24.00;24.00;
53658;PMS5003;41524;35.624;139.698;2023-04-02T01:15:11;32.00;29.00;
53658;PMS5003;41524;35.624;139.698;2023-04-02T01:20:36;27.00;25.00;
53658;PMS5003;41524;35.624;139.698;2023-04-02T01:25:12;29.00;26.00;
53658;PMS5003;41524;35.624;139.698;2023-04-02T01:30:10;24.00;23.00;
53658;PMS5003;41524;35.624;139.698;2023-04-02T01:35:16;30.00;27.00;
53658;PMS5003;41524;35.624;139.698;2023-04-02T01:40:18;24.00;24.00;
53658;PMS5003;41524;35.624;139.698;2023-04-02T01:45:09;30.00;29.00;
53658;PMS5003;41524;35.624;139.698;2023-04-02T01:50:19;22.00;21.00;
53658;PMS5003;41524;35.624;139.698;2023-04-02T01:55:10;29.00;26.00;
53658;PMS5003;41524;35.624;139.698;2023-04-02T02:00:10;28.00;23.00;
53658;PMS5003;41524;35.624;139.698;2023-04-02T02:05:10;25.00;24.00;
53658;PMS5003;41524;35.624;139.698;2023-04-02T02:10:14;26.00;25.00;
53658;PMS5003;41524;35.624;139.698;2023-04-02T02:15:15;28.00;25.00;
53658;PMS5003;41524;35.624;139.698;2023-04-02T02:20:14;25.00;23.00;
53658;PMS5003;41524;35.624;139.698;2023-04-02T02:25:10;24.00;23.00;
53658;PMS5003;41524;35.624;139.698;2023-04-02T02:30:15;21.00;19.00;
53658;PMS5003;41524;35.624;139.698;2023-04-02T02:35:15;18.00;18.00;
53658;PMS5003;41524;35.624;139.698;2023-04-02T02:40:10;25.00;25.00;
53658;PMS5003;41524;35.624;139.698;2023-04-02T02:45:11;21.00;21.00;
53658;PMS5003;41524;35.624;139.698;2023-04-02T02:50:11;23.00;21.00;
53658;PMS5003;41524;35.624;139.698;2023-04-02T02:55:11;19.00;17.00;
53658;PMS5003;41524;35.624;139.698;2023-04-02T03:00:14;21.00;21.00;
53658;PMS5003;41524;35.624;139.698;2023-04-02T03:05:15;18.00;18.00;
53658;PMS5003;41524;35.624;139.698;2023-04-02T03:10:15;26.00;23.00;
53658;PMS5003;41524;35.624;139.698;2023-04-02T03:15:15;21.00;19.00;
53658;PMS5003;41524;35.624;139.698;2023-04-02T03:20:16;28.00;27.00;
53658;PMS5003;41524;35.624;139.698;2023-04-02T03:25:13;29.00;23.00;
53658;PMS5003;41524;35.624;139.698;2023-04-02T03:30:17;19.00;18.00;
53658;PMS5003;41524;35.624;139.698;2023-04-02T03:35:16;24.00;24.00;
53658;PMS5003;41524;35.624;139.698;2023-04-02T03:40:14;23.00;20.00;
53658;PMS5003;41524;35.624;139.698;2023-04-02T03:45:17;23.00;22.00;
53658;PMS5003;41524;35.624;139.698;2023-04-02T03:50:10;29.00;28.00;
53658;PMS5003;41524;35.624;139.698;2023-04-02T03:55:10;25.00;23.00;
53658;PMS5003;41524;35.624;139.698;2023-04-02T04:00:13;20.00;20.00;
53658;PMS5003;41524;35.624;139.698;2023-04-02T04:05:18;21.00;20.00;
53658;PMS5003;41524;35.624;139.698;2023-04-02T04:10:16;28.00;23.00;
53658;PMS5003;41524;35.624;139.698;2023-04-02T04:15:15;24.00;21.00;
53658;PMS5003;41524;35.624;139.698;2023-04-02T04:20:13;30.00;30.00;
53658;PMS5003;41524;35.624;139.698;2023-04-02T04:25:17;24.00;22.00;
53658;PMS5003;41524;35.624;139.698;2023-04-02T04:30:13;30.00;30.00;
53658;PMS5003;41524;35.624;139.698;2023-04-02T04:35:15;29.00;26.00;
53658;PMS5003;41524;35.624;139.698;2023-04-02T04:40:17;26.00;25.00;
53658;PMS5003;41524;35.624;139.698;2023-04-02T04:45:12;30.00;29.00;
53658;PMS5003;41524;35.624;139.698;2023-04-02T04:50:15;24.00;23.00;
53658;PMS5003;41524;35.624;139.698;2023-04-02T04:55:20;28.00;26.00;
53658;PMS5003;41524;35.624;139.698;2023-04-02T05:00:15;29.00;29.00;
53658;PMS5003;41524;35.624;139.698;2023-04-02T05:05:15;27.00;26.00;
53658;PMS5003;41524;35.624;139.698;2023-04-02T05:10:12;23.00;22.00;
53658;PMS5003;41524;35.624;139.698;2023-04-02T05:15:11;32.00;32.00;
53658;PMS5003;41524;35.624;139.698;2023-04-02T05:20:11;27.00;24.00;
53658;PMS5003;41524;35.624;139.698;2023-04-02T05:25:15;30.00;24.00;
53658;PMS5003;41524;35.624;139.698;2023-04-02T05:30:37;30.00;26.00;
53658;PMS5003;41524;35.624;139.698;2023-04-02T05:35:13;24.00;23.00;
53658;PMS5003;41524;35.624;139.698;2023-04-02T05:40:11;29.00;26.00;
53658;PMS5003;41524;35.624;139.698;2023-04-02T05:45:22;28.00;26.00;
53658;PMS5003;41524;35.624;139.698;2023-04-02T05:50:15;32.00;27.00;
53658;PMS5003;41524;35.624;139.698;2023-04-02T05:55:22;32.00;28.00;
53658;PMS5003;41524;35.624;139.698;2023-04-02T06:00:16;32.00;30.00;
53658;PMS5003;41524;35.624;139.698;2023-04-02T06:05:14;26.00;25.00;
53658;PMS5003;41524;35.624;139.698;2023-04-02T06:10:10;32.00;31.00;
53658;PMS5003;41524;35.624;139.698;2023-04-02T06:15:11;36.00;35.00;
53658;PMS5003;41524;35.624;139.698;2023-04-02T06:20:12;29.00;25.00;
53658;PMS5003;41524;35.624;139.698;2023-04-02T06:25:12;32.00;31.00;
53658;PMS5003;41524;35.624;139.698;2023-04-02T06:30:13;33.00;30.00;
53658;PMS5003;41524;35.624;139.698;2023-04-02T06:35:11;37.00;34.00;
53658;PMS5003;41524;35.624;139.698;2023-04-02T06:40:20;40.00;38.00;
53658;PMS5003;41524;35.624;139.698;2023-04-02T06:45:12;30.00;29.00;
53658;PMS5003;41524;35.624;139.698;2023-04-02T06:50:11;37.00;34.00;
53658;PMS5003;41524;35.624;139.698;2023-04-02T06:55:28;33.00;33.00;
53658;PMS5003;41524;35.624;139.698;2023-04-02T07:00:19;35.00;33.00;
53658;PMS5003;41524;35.624;139.698;2023-04-02T07:05:14;34.00;34.00;
53658;PMS5003;41524;35.624;139.698;2023-04-02T07:10:10;35.00;33.00;
53658;PMS5003;41524;35.624;139.698;2023-04-02T07:15:14;30.00;30.00;
53658;PMS5003;41524;35.624;139.698;2023-04-02T07:20:21;29.00;25.00;
53658;PMS5003;41524;35.624;139.698;2023-04-02T07:25:09;21.00;21.00;
53658;PMS5003;41524;35.624;139.698;2023-04-02T07:30:14;32.00;27.00;
53658;PMS5003;41524;35.624;139.698;2023-04-02T07:35:09;29.00;25.00;
53658;PMS5003;41524;35.624;139.698;2023-04-02T07:40:14;31.00;30.00;
53658;PMS5003;41524;35.624;139.698;2023-04-02T07:45:14;31.00;28.00;
53658;PMS5003;41524;35.624;139.698;2023-04-02T07:50:09;31.00;30.00;
53658;PMS5003;41524;35.624;139.698;2023-04-02T07:55:15;36.00;30.00;
53658;PMS5003;41524;35.624;139.698;2023-04-02T08:00:15;40.00;35.00;
53658;PMS5003;41524;35.624;139.698;2023-04-02T08:05:17;40.00;31.00;
53658;PMS5003;41524;35.624;139.698;2023-04-02T08:10:14;34.00;33.00;
53658;PMS5003;41524;35.624;139.698;2023-04-02T08:15:12;34.00;34.00;
53658;PMS5003;41524;35.624;139.698;2023-04-02T08:20:13;43.00;38.00;
53658;PMS5003;41524;35.624;139.698;2023-04-02T08:25:14;28.00;26.00;
53658;PMS5003;41524;35.624;139.698;2023-04-02T08:30:10;31.00;30.00;
53658;PMS5003;41524;35.624;139.698;2023-04-02T08:35:11;32.00;31.00;
53658;PMS5003;41524;35.624;139.698;2023-04-02T08:40:19;35.00;31.00;
53658;PMS5003;41524;35.624;139.698;2023-04-02T08:45:18;35.00;30.00;
53658;PMS5003;41524;35.624;139.698;2023-04-02T08:50:27;33.00;29.00;
53658;PMS5003;41524;35.624;139.698;2023-04-02T08:55:17;26.00;24.00;
53658;PMS5003;41524;35.624;139.698;2023-04-02T09:00:20;24.00;23.00;
53658;PMS5003;41524;35.624;139.698;2023-04-02T09:05:15;25.00;24.00;
53658;PMS5003;41524;35.624;139.698;2023-04-02T09:10:15;32.00;28.00;
53658;PMS5003;41524;35.624;139.698;2023-04-02T09:15:16;26.00;25.00;
53658;PMS5003;41524;35.624;139.698;2023-04-02T09:20:13;28.00;24.00;
53658;PMS5003;41524;35.624;139.698;2023-04-02T09:25:11;29.00;25.00;
53658;PMS5003;41524;35.624;139.698;2023-04-02T09:30:19;23.00;22.00;
53658;PMS5003;41524;35.624;139.698;2023-04-02T09:35:11;31.00;30.00;
53658;PMS5003;41524;35.624;139.698;2023-04-02T09:40:16;25.00;24.00;
53658;PMS5003;41524;35.624;139.698;2023-04-02T09:45:19;22.00;21.00;
53658;PMS5003;41524;35.624;139.698;2023-04-02T09:50:30;24.00;22.00;
53658;PMS5003;41524;35.624;139.698;2023-04-02T09:55:19;19.00;19.00;
53658;PMS5003;41524;35.624;139.698;2023-04-02T10:00:20;21.00;19.00;
53658;PMS5003;41524;35.624;139.698;2023-04-02T10:05:18;20.00;20.00;
53658;PMS5003;41524;35.624;139.698;2023-04-02T10:10:16;25.00;23.00;
53658;PMS5003;41524;35.624;139.698;2023-04-02T10:15:14;31.00;28.00;
53658;PMS5003;41524;35.624;139.698;2023-04-02T10:20:16;21.00;19.00;
53658;PMS5003;41524;35.624;139.698;2023-04-02T10:25:14;20.00;20.00;
53658;PMS5003;41524;35.624;139.698;2023-04-02T10:30:12;28.00;26.00;
53658;PMS5003;41524;35.624;139.698;2023-04-02T10:35:11;26.00;23.00;
53658;PMS5003;41524;35.624;139.698;2023-04-02T10:40:09;21.00;21.00;
53658;PMS5003;41524;35.624;139.698;2023-04-02T10:45:16;22.00;21.00;
53658;PMS5003;41524;35.624;139.698;2023-04-02T10:50:21;23.00;22.00;
53658;PMS5003;41524;35.624;139.698;2023-04-02T10:55:16;20.00;19.00;
53658;PMS5003;41524;35.624;139.698;2023-04-02T11:00:17;24.00;21.00;
53658;PMS5003;41524;35.624;139.698;2023-04-02T11:05:17;22.00;20.00;
53658;PMS5003;41524;35.624;139.698;2023-04-02T11:10:26;22.00;20.00;
53658;PMS5003;41524;35.624;139.698;2023-04-02T11:15:12;24.00;23.00;
53658;PMS5003;41524;35.624;139.698;2023-04-02T11:20:58;19.00;18.00;
53658;PMS5003;41524;35.624;139.698;2023-04-02T11:25:12;22.00;22.00;
53658;PMS5003;41524;35.624;139.698;2023-04-02T11:30:18;16.00;16.00;
53658;PMS5003;41524;35.624;139.698;2023-04-02T11:35:26;21.00;20.00;
53658;PMS5003;41524;35.624;139.698;2023-04-02T11:40:48;25.00;22.00;
53658;PMS5003;41524;35.624;139.698;2023-04-02T11:50:28;20.00;18.00;
53658;PMS5003;41524;35.624;139.698;2023-04-02T11:55:19;25.00;24.00;
53658;PMS5003;41524;35.624;139.698;2023-04-02T12:00:17;19.00;18.00;
53658;PMS5003;41524;35.624;139.698;2023-04-02T12:05:16;17.00;17.00;
53658;PMS5003;41524;35.624;139.698;2023-04-02T12:10:14;19.00;18.00;
53658;PMS5003;41524;35.624;139.698;2023-04-02T12:15:27;23.00;22.00;
53658;PMS5003;41524;35.624;139.698;2023-04-02T12:20:17;23.00;23.00;
53658;PMS5003;41524;35.624;139.698;2023-04-02T12:25:20;17.00;17.00;
53658;PMS5003;41524;35.624;139.698;2023-04-02T12:30:15;27.00;27.00;
53658;PMS5003;41524;35.624;139.698;2023-04-02T12:35:20;19.00;18.00;
53658;PMS5003;41524;35.624;139.698;2023-04-02T12:40:15;18.00;18.00;
53658;PMS5003;41524;35.624;139.698;2023-04-02T12:45:21;20.00;18.00;
53658;PMS5003;41524;35.624;139.698;2023-04-02T12:50:12;20.00;17.00;
53658;PMS5003;41524;35.624;139.698;2023-04-02T12:55:15;19.00;17.00;
53658;PMS5003;41524;35.624;139.698;2023-04-02T13:00:41;21.00;20.00;
53658;PMS5003;41524;35.624;139.698;2023-04-02T13:05:12;17.00;17.00;
53658;PMS5003;41524;35.624;139.698;2023-04-02T13:10:21;16.00;16.00;
53658;PMS5003;41524;35.624;139.698;2023-04-02T13:15:19;17.00;14.00;
53658;PMS5003;41524;35.624;139.698;2023-04-02T13:20:41;16.00;16.00;
53658;PMS5003;41524;35.624;139.698;2023-04-02T13:25:09;18.00;15.00;
53658;PMS5003;41524;35.624;139.698;2023-04-02T13:30:15;18.00;17.00;
53658;PMS5003;41524;35.624;139.698;2023-04-02T13:35:14;20.00;19.00;
53658;PMS5003;41524;35.624;139.698;2023-04-02T13:40:14;19.00;19.00;
53658;PMS5003;41524;35.624;139.698;2023-04-02T13:45:21;15.00;12.00;
53658;PMS5003;41524;35.624;139.698;2023-04-02T13:50:15;14.00;14.00;
53658;PMS5003;41524;35.624;139.698;2023-04-02T13:55:10;14.00;14.00;
53658;PMS5003;41524;35.624;139.698;2023-04-02T14:00:09;13.00;12.00;
53658;PMS5003;41524;35.624;139.698;2023-04-02T14:05:14;12.00;12.00;
53658;PMS5003;41524;35.624;139.698;2023-04-02T14:10:18;14.00;14.00;
53658;PMS5003;41524;35.624;139.698;2023-04-02T14:15:16;15.00;15.00;
53658;PMS5003;41524;35.624;139.698;2023-04-02T14:20:13;15.00;15.00;
53658;PMS5003;41524;35.624;139.698;2023-04-02T14:25:15;16.00;15.00;
53658;PMS5003;41524;35.624;139.698;2023-04-02T14:30:17;14.00;13.00;
53658;PMS5003;41524;35.624;139.698;2023-04-02T14:35:11;20.00;20.00;
53658;PMS5003;41524;35.624;139.698;2023-04-02T14:40:26;13.00;13.00;
53658;PMS5003;41524;35.624;139.698;2023-04-02T14:45:11;18.00;16.00;
53658;PMS5003;41524;35.624;139.698;2023-04-02T14:50:15;15.00;15.00;
53658;PMS5003;41524;35.624;139.698;2023-04-02T14:55:11;21.00;19.00;
53658;PMS5003;41524;35.624;139.698;2023-04-02T15:00:21;20.00;20.00;
53658;PMS5003;41524;35.624;139.698;2023-04-02T15:05:16;19.00;19.00;
53658;PMS5003;41524;35.624;139.698;2023-04-02T15:10:19;21.00;20.00;
53658;PMS5003;41524;35.624;139.698;2023-04-02T15:15:17;29.00;26.00;
53658;PMS5003;41524;35.624;139.698;2023-04-02T15:20:12;18.00;17.00;
53658;PMS5003;41524;35.624;139.698;2023-04-02T15:25:12;29.00;23.00;
53658;PMS5003;41524;35.624;139.698;2023-04-02T15:30:12;25.00;23.00;
53658;PMS5003;41524;35.624;139.698;2023-04-02T15:35:14;21.00;17.00;
53658;PMS5003;41524;35.624;139.698;2023-04-02T15:40:17;17.00;17.00;
53658;PMS5003;41524;35.624;139.698;2023-04-02T15:45:22;23.00;23.00;
53658;PMS5003;41524;35.624;139.698;2023-04-02T15:50:12;18.00;17.00;
53658;PMS5003;41524;35.624;139.698;2023-04-02T15:55:12;15.00;15.00;
53658;PMS5003;41524;35.624;139.698;2023-04-02T16:00:23;23.00;22.00;
53658;PMS5003;41524;35.624;139.698;2023-04-02T16:05:12;19.00;19.00;
53658;PMS5003;41524;35.624;139.698;2023-04-02T16:10:11;18.00;18.00;
53658;PMS5003;41524;35.624;139.698;2023-04-02T16:15:15;18.00;14.00;
53658;PMS5003;41524;35.624;139.698;2023-04-02T16:20:15;16.00;15.00;
53658;PMS5003;41524;35.624;139.698;2023-04-02T16:25:13;23.00;21.00;
53658;PMS5003;41524;35.624;139.698;2023-04-02T16:30:25;20.00;18.00;
53658;PMS5003;41524;35.624;139.698;2023-04-02T16:35:13;17.00;16.00;
53658;PMS5003;41524;35.624;139.698;2023-04-02T16:40:14;15.00;15.00;
53658;PMS5003;41524;35.624;139.698;2023-04-02T16:45:14;18.00;18.00;
53658;PMS5003;41524;35.624;139.698;2023-04-02T16:50:11;17.00;16.00;
53658;PMS5003;41524;35.624;139.698;2023-04-02T16:55:18;18.00;15.00;
53658;PMS5003;41524;35.624;139.698;2023-04-02T17:00:12;17.00;15.00;
53658;PMS5003;41524;35.624;139.698;2023-04-02T17:05:12;14.00;14.00;
53658;PMS5003;41524;35.624;139.698;2023-04-02T17:10:19;14.00;14.00;
53658;PMS5003;41524;35.624;139.698;2023-04-02T17:15:15;23.00;21.00;
53658;PMS5003;41524;35.624;139.698;2023-04-02T17:20:12;18.00;17.00;
53658;PMS5003;41524;35.624;139.698;2023-04-02T17:25:14;16.00;16.00;
53658;PMS5003;41524;35.624;139.698;2023-04-02T17:30:12;17.00;15.00;
53658;PMS5003;41524;35.624;139.698;2023-04-02T17:35:15;13.00;11.00;
53658;PMS5003;41524;35.624;139.698;2023-04-02T17:40:12;14.00;14.00;
53658;PMS5003;41524;35.624;139.698;2023-04-02T17:45:16;19.00;18.00;
53658;PMS5003;41524;35.624;139.698;2023-04-02T17:50:30;14.00;13.00;
53658;PMS5003;41524;35.624;139.698;2023-04-02T17:55:13;14.00;14.00;
53658;PMS5003;41524;35.624;139.698;2023-04-02T18:00:19;20.00;19.00;
53658;PMS5003;41524;35.624;139.698;2023-04-02T18:05:16;12.00;12.00;
53658;PMS5003;41524;35.624;139.698;2023-04-02T18:10:16;19.00;17.00;
53658;PMS5003;41524;35.624;139.698;2023-04-02T18:15:15;16.00;16.00;
53658;PMS5003;41524;35.624;139.698;2023-04-02T18:20:15;14.00;14.00;
53658;PMS5003;41524;35.624;139.698;2023-04-02T18:25:15;18.00;15.00;
53658;PMS5003;41524;35.624;139.698;2023-04-02T18:30:12;12.00;12.00;
53658;PMS5003;41524;35.624;139.698;2023-04-02T18:35:12;18.00;16.00;
53658;PMS5003;41524;35.624;139.698;2023-04-02T18:40:17;16.00;15.00;
53658;PMS5003;41524;35.624;139.698;2023-04-02T18:45:10;15.00;15.00;
53658;PMS5003;41524;35.624;139.698;2023-04-02T18:50:12;16.00;14.00;
53658;PMS5003;41524;35.624;139.698;2023-04-02T18:55:13;20.00;19.00;
53658;PMS5003;41524;35.624;139.698;2023-04-02T19:00:16;14.00;14.00;
53658;PMS5003;41524;35.624;139.698;2023-04-02T19:05:13;12.00;12.00;
53658;PMS5003;41524;35.624;139.698;2023-04-02T19:10:16;15.00;14.00;
53658;PMS5003;41524;35.624;139.698;2023-04-02T19:15:14;17.00;16.00;
53658;PMS5003;41524;35.624;139.698;2023-04-02T19:20:12;15.00;15.00;
53658;PMS5003;41524;35.624;139.698;2023-04-02T19:25:15;11.00;11.00;
53658;PMS5003;41524;35.624;139.698;2023-04-02T19:30:26;10.00;9.00;
53658;PMS5003;41524;35.624;139.698;2023-04-02T19:35:12;17.00;12.00;
53658;PMS5003;41524;35.624;139.698;2023-04-02T19:40:18;13.00;12.00;
53658;PMS5003;41524;35.624;139.698;2023-04-02T19:45:18;22.00;21.00;
53658;PMS5003;41524;35.624;139.698;2023-04-02T19:50:10;12.00;12.00;
53658;PMS5003;41524;35.624;139.698;2023-04-02T19:55:11;16.00;11.00;
53658;PMS5003;41524;35.624;139.698;2023-04-02T20:00:15;15.00;15.00;
53658;PMS5003;41524;35.624;139.698;2023-04-02T20:05:09;13.00;11.00;
53658;PMS5003;41524;35.624;139.698;2023-04-02T20:10:09;13.00;11.00;
53658;PMS5003;41524;35.624;139.698;2023-04-02T20:15:09;19.00;18.00;
53658;PMS5003;41524;35.624;139.698;2023-04-02T20:20:11;13.00;13.00;
53658;PMS5003;41524;35.624;139.698;2023-04-02T20:25:09;14.00;13.00;
53658;PMS5003;41524;35.624;139.698;2023-04-02T20:30:14;13.00;12.00;
53658;PMS5003;41524;35.624;139.698;2023-04-02T20:35:09;16.00;14.00;
53658;PMS5003;41524;35.624;139.698;2023-04-02T20:40:09;16.00;13.00;
53658;PMS5003;41524;35.624;139.698;2023-04-02T20:45:09;14.00;13.00;
53658;PMS5003;41524;35.624;139.698;2023-04-02T20:50:15;16.00;16.00;
53658;PMS5003;41524;35.624;139.698;2023-04-02T20:55:16;11.00;11.00;
53658;PMS5003;41524;35.624;139.698;2023-04-02T21:00:10;14.00;13.00;
53658;PMS5003;41524;35.624;139.698;2023-04-02T21:05:10;19.00;19.00;
53658;PMS5003;41524;35.624;139.698;2023-04-02T21:10:13;10.00;10.00;
53658;PMS5003;41524;35.624;139.698;2023-04-02T21:15:14;15.00;13.00;
53658;PMS5003;41524;35.624;139.698;2023-04-02T21:20:09;22.00;21.00;
53658;PMS5003;41524;35.624;139.698;2023-04-02T21:25:14;16.00;16.00;
53658;PMS5003;41524;35.624;139.698;2023-04-02T21:30:14;16.00;16.00;
53658;PMS5003;41524;35.624;139.698;2023-04-02T21:35:14;17.00;15.00;
53658;PMS5003;41524;35.624;139.698;2023-04-02T21:40:09;18.00;17.00;
53658;PMS5003;41524;35.624;139.698;2023-04-02T21:45:10;19.00;17.00;
53658;PMS5003;41524;35.624;139.698;2023-04-02T21:50:09;17.00;16.00;
53658;PMS5003;41524;35.624;139.698;2023-04-02T21:55:11;13.00;13.00;
53658;PMS5003;41524;35.624;139.698;2023-04-02T22:00:10;18.00;16.00;
53658;PMS5003;41524;35.624;139.698;2023-04-02T22:05:14;16.00;14.00;
53658;PMS5003;41524;35.624;139.698;2023-04-02T22:10:09;20.00;19.00;
53658;PMS5003;41524;35.624;139.698;2023-04-02T22:15:13;15.00;15.00;
53658;PMS5003;41524;35.624;139.698;2023-04-02T22:20:09;15.00;13.00;
53658;PMS5003;41524;35.624;139.698;2023-04-02T22:25:14;17.00;15.00;
53658;PMS5003;41524;35.624;139.698;2023-04-02T22:30:20;18.00;18.00;
53658;PMS5003;41524;35.624;139.698;2023-04-02T22:35:14;19.00;18.00;
53658;PMS5003;41524;35.624;139.698;2023-04-02T22:40:09;15.00;15.00;
53658;PMS5003;41524;35.624;139.698;2023-04-02T22:45:10;21.00;18.00;
53658;PMS5003;41524;35.624;139.698;2023-04-02T22:50:08;16.00;15.00;
53658;PMS5003;41524;35.624;139.698;2023-04-02T22:55:14;16.00;14.00;
53658;PMS5003;41524;35.624;139.698;2023-04-02T23:00:18;17.00;15.00;
53658;PMS5003;41524;35.624;139.698;2023-04-02T23:05:09;22.00;18.00;
53658;PMS5003;41524;35.624;139.698;2023-04-02T23:10:14;19.00;19.00;
53658;PMS5003;41524;35.624;139.698;2023-04-02T23:15:20;14.00;13.00;
53658;PMS5003;41524;35.624;139.698;2023-04-02T23:20:10;14.00;14.00;
53658;PMS5003;41524;35.624;139.698;2023-04-02T23:25:11;19.00;18.00;
53658;PMS5003;41524;35.624;139.698;2023-04-02T23:30:10;16.00;15.00;
53658;PMS5003;41524;35.624;139.698;2023-04-02T23:35:09;14.00;14.00;
53658;PMS5003;41524;35.624;139.698;2023-04-02T23:40:14;16.00;15.00;
53658;PMS5003;41524;35.624;139.698;2023-04-02T23:45:14;18.00;16.00;
53658;PMS5003;41524;35.624;139.698;2023-04-02T23:50:14;17.00;16.00;
53658;PMS5003;41524;35.624;139.698;2023-04-02T23:55:10;18.00;17.00;
